createdAt,value
2023-02-11T00:01:29.663Z,28.13
2023-02-11T00:03:57.663Z,29.20
2023-02-11T00:06:26.029Z,28.77
2023-02-11T00:08:52.932Z,26.23
2023-02-11T00:11:21.046Z,29.07
2023-02-11T00:13:48.640Z,28.60
2023-02-11T00:16:18.352Z,28.17
2023-02-11T00:18:45.548Z,25.60
2023-02-11T00:21:14.710Z,26.70
2023-02-11T00:23:42.574Z,26.43
2023-02-11T00:26:14.485Z,27.37
2023-02-11T00:28:43.195Z,28.53
2023-02-11T00:31:11.270Z,26.73
2023-02-11T00:33:38.499Z,30.07
2023-02-11T00:36:07.915Z,29.50
2023-02-11T00:38:34.680Z,26.83
2023-02-11T00:41:01.765Z,29.13
2023-02-11T00:43:28.711Z,27.27
2023-02-11T00:45:55.412Z,30.00
2023-02-11T00:48:23.487Z,29.93
2023-02-11T00:50:50.416Z,27.07
2023-02-11T00:53:17.128Z,30.07
2023-02-11T00:55:43.755Z,26.60
2023-02-11T00:58:10.470Z,27.70
2023-02-11T01:00:37.128Z,27.23
2023-02-11T01:03:04.070Z,28.97
2023-02-11T01:05:31.664Z,31.23
2023-02-11T01:07:59.170Z,29.90
2023-02-11T01:10:26.106Z,29.07
2023-02-11T01:12:52.891Z,28.53
2023-02-11T01:15:20.925Z,29.53
2023-02-11T01:17:47.752Z,27.60
2023-02-11T01:20:20.366Z,27.77
2023-02-11T01:22:47.329Z,30.70
2023-02-11T01:25:15.793Z,29.60
2023-02-11T01:27:42.669Z,28.20
2023-02-11T01:30:13.556Z,30.37
2023-02-11T01:32:41.117Z,26.43
2023-02-11T01:35:09.216Z,29.07
2023-02-11T01:37:36.676Z,31.13
2023-02-11T01:40:06.808Z,29.90
2023-02-11T01:42:34.827Z,28.30
2023-02-11T01:45:22.221Z,28.97
2023-02-11T01:47:49.026Z,30.67
2023-02-11T01:50:15.999Z,30.20
2023-02-11T01:52:43.947Z,30.53
2023-02-11T01:55:12.751Z,29.33
2023-02-11T01:57:44.748Z,31.00
2023-02-11T02:00:30.498Z,32.80
2023-02-11T02:03:17.932Z,30.63
2023-02-11T02:06:03.568Z,31.23
2023-02-11T02:08:39.373Z,32.23
2023-02-11T02:11:07.127Z,29.00
2023-02-11T02:13:36.948Z,28.23
2023-02-11T02:16:09.683Z,32.43
2023-02-11T02:19:01.139Z,29.27
2023-02-11T02:21:52.541Z,32.37
2023-02-11T02:24:38.081Z,31.13
2023-02-11T02:27:11.895Z,32.53
2023-02-11T02:30:04.425Z,29.77
2023-02-11T02:32:57.509Z,32.73
2023-02-11T02:35:48.771Z,33.47
2023-02-11T02:38:34.001Z,33.17
2023-02-11T02:41:15.190Z,31.93
2023-02-11T02:43:45.323Z,30.93
2023-02-11T02:46:22.145Z,31.77
2023-02-11T02:48:50.143Z,30.87
2023-02-11T02:51:44.177Z,30.93
2023-02-11T02:54:31.135Z,32.33
2023-02-11T02:57:22.392Z,33.47
2023-02-11T02:59:55.131Z,34.57
2023-02-11T03:02:31.579Z,32.23
2023-02-11T03:05:30.717Z,33.53
2023-02-11T03:08:09.454Z,33.37
2023-02-11T03:10:41.185Z,34.67
2023-02-11T03:13:08.229Z,34.33
2023-02-11T03:15:42.029Z,32.60
2023-02-11T03:18:11.853Z,32.17
2023-02-11T03:20:41.896Z,33.00
2023-02-11T03:23:16.195Z,32.77
2023-02-11T03:25:50.765Z,33.90
2023-02-11T03:28:33.570Z,35.70
2023-02-11T03:31:17.703Z,30.67
2023-02-11T03:34:01.951Z,33.97
2023-02-11T03:36:46.553Z,33.07
2023-02-11T03:39:19.484Z,34.90
2023-02-11T03:41:49.763Z,35.77
2023-02-11T03:44:17.166Z,33.80
2023-02-11T03:46:50.184Z,31.20
2023-02-11T03:49:20.433Z,38.23
2023-02-11T03:51:51.381Z,35.63
2023-02-11T03:54:24.498Z,34.63
2023-02-11T03:56:54.048Z,33.20
2023-02-11T03:59:20.648Z,32.20
2023-02-11T04:01:47.835Z,34.53
2023-02-11T04:04:14.844Z,36.47
2023-02-11T04:06:41.625Z,35.37
2023-02-11T04:09:08.262Z,36.53
2023-02-11T04:11:35.030Z,37.37
2023-02-11T04:14:01.820Z,36.83
2023-02-11T04:16:29.205Z,36.27
2023-02-11T04:18:55.883Z,32.13
2023-02-11T04:21:22.599Z,34.97
2023-02-11T04:23:49.216Z,35.77
2023-02-11T04:26:16.313Z,33.37
2023-02-11T04:28:42.859Z,32.40
2023-02-11T04:31:09.623Z,34.63
2023-02-11T04:33:36.356Z,32.93
2023-02-11T04:36:03.057Z,33.90
2023-02-11T04:38:29.672Z,35.03
2023-02-11T04:40:58.111Z,32.20
2023-02-11T04:43:24.696Z,32.07
2023-02-11T04:45:51.739Z,33.83
2023-02-11T04:48:18.537Z,33.10
2023-02-11T04:50:45.309Z,33.97
2023-02-11T04:53:11.907Z,34.07
2023-02-11T04:55:38.710Z,33.17
2023-02-11T04:58:05.292Z,32.80
2023-02-11T05:00:32.134Z,34.87
2023-02-11T05:02:58.818Z,35.57
2023-02-11T05:05:25.564Z,35.07
2023-02-11T05:07:52.146Z,34.67
2023-02-11T05:10:18.931Z,34.87
2023-02-11T05:12:48.259Z,32.97
2023-02-11T05:15:15.195Z,33.63
2023-02-11T05:17:41.857Z,32.57
2023-02-11T05:20:09.249Z,36.67
2023-02-11T05:22:35.830Z,35.93
2023-02-11T05:25:02.604Z,30.97
2023-02-11T05:27:29.281Z,33.57
2023-02-11T05:29:55.966Z,32.87
2023-02-11T05:32:23.071Z,34.13
2023-02-11T05:34:49.795Z,34.37
2023-02-11T05:37:16.428Z,35.47
2023-02-11T05:39:43.220Z,32.63
2023-02-11T05:42:09.844Z,32.70
2023-02-11T05:44:36.612Z,35.63
2023-02-11T05:47:03.450Z,35.67
2023-02-11T05:49:30.387Z,36.40
2023-02-11T05:51:57.326Z,35.37
2023-02-11T05:54:24.067Z,36.70
2023-02-11T05:56:50.667Z,33.90
2023-02-11T05:59:17.406Z,33.90
2023-02-11T06:01:44.405Z,32.47
2023-02-11T06:04:11.295Z,35.03
2023-02-11T06:06:38.050Z,35.13
2023-02-11T06:09:04.964Z,33.53
2023-02-11T06:11:31.709Z,33.17
2023-02-11T06:13:58.381Z,37.27
2023-02-11T06:16:25.184Z,33.30
2023-02-11T06:18:51.891Z,34.93
2023-02-11T06:21:18.691Z,34.30
2023-02-11T06:23:46.626Z,37.03
2023-02-11T06:26:22.112Z,32.93
2023-02-11T06:28:49.131Z,36.17
2023-02-11T06:31:16.711Z,36.00
2023-02-11T06:33:44.032Z,37.23
2023-02-11T06:36:17.299Z,36.07
2023-02-11T06:38:44.317Z,38.93
2023-02-11T06:41:12.840Z,37.30
2023-02-11T06:43:40.333Z,33.83
2023-02-11T06:46:08.536Z,36.90
2023-02-11T06:48:35.801Z,32.97
2023-02-11T06:51:08.169Z,35.30
2023-02-11T06:53:37.062Z,38.37
2023-02-11T06:56:09.086Z,33.43
2023-02-11T06:58:36.832Z,37.37
2023-02-11T07:01:11.759Z,36.07
2023-02-11T07:03:45.447Z,34.23
2023-02-11T07:06:17.739Z,38.47
2023-02-11T07:08:46.028Z,33.80
2023-02-11T07:11:24.395Z,35.73
2023-02-11T07:13:53.400Z,35.90
2023-02-11T07:16:20.533Z,36.47
2023-02-11T07:18:48.686Z,36.63
2023-02-11T07:21:18.801Z,36.07
2023-02-11T07:23:46.310Z,35.40
2023-02-11T07:26:18.021Z,38.53
2023-02-11T07:28:46.899Z,37.10
2023-02-11T07:31:28.160Z,35.57
2023-02-11T07:33:57.059Z,36.30
2023-02-11T07:36:23.790Z,34.77
2023-02-11T07:38:50.705Z,39.70
2023-02-11T07:41:20.472Z,39.17
2023-02-11T07:43:47.612Z,36.97
2023-02-11T07:46:21.253Z,35.97
2023-02-11T07:48:48.476Z,36.67
2023-02-11T07:51:16.219Z,37.63
2023-02-11T07:53:43.612Z,37.30
2023-02-11T07:56:12.153Z,36.37
2023-02-11T07:58:39.420Z,41.13
2023-02-11T08:01:09.026Z,36.70
2023-02-11T08:03:37.828Z,37.10
2023-02-11T08:06:10.729Z,36.43
2023-02-11T08:08:38.706Z,39.57
2023-02-11T08:11:18.191Z,38.10
2023-02-11T08:13:45.709Z,36.60
2023-02-11T08:16:23.146Z,37.60
2023-02-11T08:18:51.206Z,38.83
2023-02-11T08:21:18.374Z,38.57
2023-02-11T08:23:46.380Z,38.57
2023-02-11T08:26:19.611Z,38.37
2023-02-11T08:28:48.186Z,37.93
2023-02-11T08:31:21.000Z,39.80
2023-02-11T08:33:48.798Z,37.37
2023-02-11T08:36:22.515Z,37.60
2023-02-11T08:38:49.457Z,39.83
2023-02-11T08:41:17.918Z,40.27
2023-02-11T08:43:46.007Z,40.87
2023-02-11T08:46:15.660Z,37.70
2023-02-11T08:48:43.654Z,36.07
2023-02-11T08:51:15.333Z,38.27
2023-02-11T08:53:42.336Z,38.07
2023-02-11T08:56:12.237Z,37.50
2023-02-11T08:58:40.484Z,36.60
2023-02-11T09:01:23.090Z,41.50
2023-02-11T09:03:50.058Z,34.73
2023-02-11T09:06:16.932Z,36.63
2023-02-11T09:08:46.482Z,34.93
2023-02-11T09:11:13.637Z,35.67
2023-02-11T09:13:41.398Z,38.73
2023-02-11T09:16:08.354Z,35.90
2023-02-11T09:18:35.061Z,36.80
2023-02-11T09:21:03.696Z,37.37
2023-02-11T09:23:30.846Z,37.30
2023-02-11T09:25:57.471Z,37.83
2023-02-11T09:28:24.251Z,35.53
2023-02-11T09:30:52.626Z,36.80
2023-02-11T09:33:19.547Z,35.70
2023-02-11T09:35:46.145Z,36.67
2023-02-11T09:38:12.886Z,33.27
2023-02-11T09:40:45.157Z,32.07
2023-02-11T09:43:33.155Z,37.83
2023-02-11T09:46:00.916Z,37.17
2023-02-11T09:48:34.727Z,35.40
2023-02-11T09:51:04.042Z,34.87
2023-02-11T09:53:42.245Z,36.73
2023-02-11T09:56:15.423Z,37.50
2023-02-11T09:58:44.270Z,36.50
2023-02-11T10:01:35.653Z,36.47
2023-02-11T10:04:42.851Z,37.27
2023-02-11T10:07:29.679Z,38.57
2023-02-11T10:10:23.249Z,35.90
2023-02-11T10:13:32.943Z,39.17
2023-02-11T10:16:32.966Z,36.60
2023-02-11T10:20:18.057Z,35.80
2023-02-11T10:29:41.437Z,35.83
2023-02-11T10:32:26.860Z,34.83
2023-02-11T10:34:59.359Z,37.87
2023-02-11T10:37:26.220Z,39.47
2023-02-11T10:39:52.942Z,36.87
2023-02-11T10:42:19.740Z,36.63
2023-02-11T10:44:54.552Z,34.80
2023-02-11T10:47:24.433Z,34.73
2023-02-11T10:49:54.195Z,35.40
2023-02-11T10:52:24.567Z,36.87
2023-02-11T10:55:11.707Z,37.90
2023-02-11T10:57:49.880Z,34.73
2023-02-11T11:00:43.244Z,37.03
2023-02-11T11:03:22.022Z,32.03
2023-02-11T11:05:57.427Z,35.80
2023-02-11T11:08:46.725Z,35.83
2023-02-11T11:11:19.753Z,38.07
2023-02-11T11:13:52.691Z,34.77
2023-02-11T11:16:19.560Z,33.57
2023-02-11T11:18:50.899Z,34.23
2023-02-11T11:21:25.587Z,35.00
2023-02-11T11:24:01.781Z,30.47
2023-02-11T11:26:44.960Z,31.43
2023-02-11T11:29:17.877Z,33.73
2023-02-11T11:31:59.566Z,31.53
2023-02-11T11:34:43.674Z,30.63
2023-02-11T11:37:29.550Z,30.87
2023-02-11T11:40:24.525Z,32.53
2023-02-11T11:43:23.354Z,33.50
2023-02-11T11:45:59.348Z,32.00
2023-02-11T11:48:53.726Z,33.97
2023-02-11T11:51:41.810Z,33.00
2023-02-11T11:54:18.098Z,31.90
2023-02-11T11:57:05.543Z,31.10
2023-02-11T11:59:33.496Z,33.07
2023-02-11T12:02:29.730Z,33.90
2023-02-11T12:05:23.457Z,29.20
2023-02-11T12:08:09.153Z,30.60
2023-02-11T12:11:01.150Z,33.83
2023-02-11T12:13:52.976Z,32.60
2023-02-11T12:16:31.061Z,33.43
2023-02-11T12:19:10.397Z,31.43
2023-02-11T12:22:12.582Z,30.77
2023-02-11T12:24:53.948Z,34.63
2023-02-11T12:27:26.624Z,35.20
2023-02-11T12:30:08.150Z,34.40
2023-02-11T12:32:53.456Z,35.03
2023-02-11T12:35:39.239Z,33.57
2023-02-11T12:38:23.493Z,34.77
2023-02-11T12:41:01.892Z,36.60
2023-02-11T12:43:40.836Z,34.70
2023-02-11T12:46:43.229Z,33.53
2023-02-11T12:49:28.565Z,33.97
2023-02-11T12:52:14.175Z,32.90
2023-02-11T12:54:48.661Z,35.23
2023-02-11T12:57:23.454Z,33.53
2023-02-11T13:00:13.833Z,35.43
2023-02-11T13:03:06.289Z,33.97
2023-02-11T13:05:36.018Z,35.03
2023-02-11T13:08:12.219Z,30.97
2023-02-11T13:10:43.497Z,34.13
2023-02-11T13:13:25.337Z,35.30
2023-02-11T13:15:58.585Z,31.93
2023-02-11T13:18:52.259Z,36.37
2023-02-11T13:21:29.407Z,33.30
2023-02-11T13:24:01.494Z,31.93
2023-02-11T13:26:50.315Z,30.23
2023-02-11T13:29:30.090Z,31.90
2023-02-11T13:32:11.088Z,35.50
2023-02-11T13:34:43.939Z,34.70
2023-02-11T13:37:26.275Z,34.70
2023-02-11T13:40:01.112Z,32.33
2023-02-11T13:42:29.928Z,32.20
2023-02-11T13:44:57.011Z,33.80
2023-02-11T13:47:31.717Z,33.43
2023-02-11T13:50:00.588Z,31.57
2023-02-11T13:52:30.821Z,31.10
2023-02-11T13:55:04.769Z,31.53
2023-02-11T13:57:36.518Z,31.43
2023-02-11T14:00:44.409Z,33.97
2023-02-11T14:03:12.512Z,31.10
2023-02-11T14:06:07.938Z,32.50
2023-02-11T14:08:36.329Z,32.03
2023-02-11T14:11:10.970Z,30.13
2023-02-11T14:14:03.404Z,32.70
2023-02-11T14:16:37.932Z,30.80
2023-02-11T14:19:05.577Z,30.87
2023-02-11T14:21:36.472Z,33.03
2023-02-11T14:24:03.144Z,31.90
2023-02-11T14:26:58.366Z,34.13
2023-02-11T14:29:44.104Z,33.97
2023-02-11T14:32:45.912Z,30.93
2023-02-11T14:35:38.898Z,34.17
2023-02-11T14:38:18.005Z,31.90
2023-02-11T14:40:50.190Z,32.67
2023-02-11T14:43:22.654Z,31.80
2023-02-11T14:45:55.592Z,34.33
2023-02-11T14:48:29.484Z,32.40
2023-02-11T14:51:06.774Z,31.87
2023-02-11T14:53:34.883Z,34.03
2023-02-11T14:56:01.528Z,34.23
2023-02-11T14:58:31.100Z,31.83
2023-02-11T15:01:06.768Z,35.20
2023-02-11T15:03:38.970Z,34.37
2023-02-11T15:06:22.310Z,33.07
2023-02-11T15:08:52.928Z,33.77
2023-02-11T15:11:22.367Z,31.17
2023-02-11T15:13:50.020Z,32.33
2023-02-11T15:16:21.072Z,33.67
2023-02-11T15:18:56.832Z,34.23
2023-02-11T15:21:26.411Z,35.30
2023-02-11T15:24:09.250Z,32.93
2023-02-11T15:26:35.928Z,38.17
2023-02-11T15:29:02.518Z,35.83
2023-02-11T15:31:30.112Z,34.60
2023-02-11T15:34:07.206Z,38.83
2023-02-11T15:36:34.092Z,38.30
2023-02-11T15:39:31.404Z,37.33
2023-02-11T15:42:23.568Z,32.43
2023-02-11T15:45:09.090Z,41.60
2023-02-11T15:47:36.244Z,35.93
2023-02-11T15:50:03.289Z,38.17
2023-02-11T15:52:30.940Z,34.57
2023-02-11T15:55:00.603Z,38.43
2023-02-11T15:57:28.330Z,36.87
2023-02-11T15:59:55.925Z,37.47
2023-02-11T16:02:32.260Z,35.93
2023-02-11T16:05:03.046Z,37.17
2023-02-11T16:07:41.779Z,41.60
2023-02-11T16:10:31.377Z,42.83
2023-02-11T16:13:07.199Z,37.73
2023-02-11T16:15:33.863Z,38.77
2023-02-11T16:18:03.455Z,40.47
2023-02-11T16:20:30.745Z,40.67
2023-02-11T16:22:57.564Z,42.77
2023-02-11T16:25:24.347Z,40.43
2023-02-11T16:27:54.548Z,54.00
2023-02-11T16:30:42.173Z,42.60
2023-02-11T16:33:11.296Z,144.63
2023-02-11T16:35:37.874Z,49.67
2023-02-11T16:38:05.564Z,63.17
2023-02-11T16:40:32.258Z,116.10
2023-02-11T16:42:58.929Z,167.33
2023-02-11T16:45:25.679Z,93.93
2023-02-11T16:47:52.816Z,148.00
2023-02-11T16:50:22.873Z,53.50
2023-02-11T16:52:49.860Z,49.93
2023-02-11T16:55:16.667Z,44.80
2023-02-11T16:57:43.353Z,45.63
2023-02-11T17:00:11.557Z,44.13
2023-02-11T17:02:39.024Z,44.33
2023-02-11T17:05:15.446Z,44.83
2023-02-11T17:07:42.143Z,45.73
2023-02-11T17:10:27.385Z,50.77
2023-02-11T17:12:55.177Z,43.37
2023-02-11T17:15:21.770Z,48.87
2023-02-11T17:17:48.441Z,39.73
2023-02-11T17:20:15.788Z,42.13
2023-02-11T17:22:42.577Z,47.50
2023-02-11T17:25:09.446Z,43.73
2023-02-11T17:27:36.201Z,45.47
2023-02-11T17:30:03.354Z,42.33
2023-02-11T17:32:32.177Z,46.13
2023-02-11T17:34:58.834Z,43.97
2023-02-11T17:37:25.588Z,47.57
2023-02-11T17:39:52.179Z,47.07
2023-02-11T17:42:19.011Z,45.87
2023-02-11T17:44:45.935Z,43.10
2023-02-11T17:47:15.286Z,46.63
2023-02-11T17:49:43.517Z,44.83
2023-02-11T17:52:10.291Z,47.27
2023-02-11T17:54:38.041Z,46.77
2023-02-11T17:57:05.360Z,45.10
2023-02-11T17:59:32.028Z,43.53
2023-02-11T18:01:58.691Z,43.13
2023-02-11T18:04:26.657Z,46.03
2023-02-11T18:06:56.682Z,44.83
2023-02-11T18:09:29.438Z,44.57
2023-02-11T18:12:06.214Z,42.10
2023-02-11T18:14:41.460Z,47.17
2023-02-11T18:17:09.477Z,46.97
2023-02-11T18:22:43.897Z,45.07
2023-02-11T18:25:27.323Z,51.03
2023-02-11T18:27:55.373Z,45.33
2023-02-11T18:30:22.725Z,45.67
2023-02-11T18:32:54.210Z,47.20
2023-02-11T18:35:21.347Z,48.73
2023-02-11T18:37:48.752Z,48.20
2023-02-11T18:40:16.014Z,47.47
2023-02-11T18:42:42.900Z,44.77
2023-02-11T18:45:12.813Z,44.43
2023-02-11T18:47:40.069Z,43.10
2023-02-11T18:50:10.152Z,43.33
2023-02-11T18:52:36.838Z,47.60
2023-02-11T18:55:04.909Z,43.63
2023-02-11T18:57:36.307Z,47.73
2023-02-11T19:00:03.800Z,47.00
2023-02-11T19:02:31.659Z,44.10
2023-02-11T19:05:00.100Z,45.10
2023-02-11T19:07:27.805Z,45.37
2023-02-11T19:09:55.974Z,44.33
2023-02-11T19:12:22.655Z,48.77
2023-02-11T19:14:49.386Z,43.73
2023-02-11T19:17:16.208Z,46.60
2023-02-11T19:19:43.051Z,44.77
2023-02-11T19:22:10.793Z,47.80
2023-02-11T19:24:37.915Z,44.60
2023-02-11T19:27:05.256Z,44.67
2023-02-11T19:29:57.804Z,47.43
2023-02-11T19:32:25.102Z,46.70
2023-02-11T19:34:52.031Z,47.00
2023-02-11T19:37:18.900Z,46.37
2023-02-11T19:39:47.281Z,51.73
2023-02-11T19:42:14.090Z,48.93
2023-02-11T19:44:41.865Z,48.97
2023-02-11T19:47:12.685Z,51.37
2023-02-11T19:49:39.989Z,48.67
2023-02-11T19:52:37.089Z,52.13
2023-02-11T19:55:50.602Z,47.83
2023-02-11T19:58:42.889Z,44.57
2023-02-11T20:01:32.408Z,46.87
2023-02-11T20:04:08.843Z,46.60
2023-02-11T20:06:51.676Z,50.70
2023-02-11T20:09:29.096Z,46.73
2023-02-11T20:12:14.762Z,47.80
2023-02-11T20:15:04.747Z,51.43
2023-02-11T20:17:50.048Z,49.43
2023-02-11T20:23:42.196Z,54.97
2023-02-11T20:26:36.757Z,51.23
2023-02-11T20:32:38.311Z,51.40
2023-02-11T20:35:20.415Z,51.20
2023-02-11T20:37:48.567Z,50.37
2023-02-11T20:40:16.872Z,49.13
2023-02-11T20:42:44.508Z,46.83
2023-02-11T20:45:13.683Z,51.83
2023-02-11T20:51:01.086Z,46.50
2023-02-11T20:54:06.524Z,50.07
2023-02-11T20:56:59.353Z,47.37
2023-02-11T20:59:26.707Z,47.60
2023-02-11T21:01:56.010Z,49.53
2023-02-11T21:04:27.593Z,56.03
2023-02-11T21:06:57.688Z,50.73
2023-02-11T21:09:27.864Z,50.10
2023-02-11T21:11:55.406Z,48.80
2023-02-11T21:14:23.385Z,53.77
2023-02-11T21:16:52.301Z,50.27
2023-02-11T21:19:21.616Z,48.70
2023-02-11T21:21:51.384Z,50.33
2023-02-11T21:24:23.109Z,49.13
2023-02-11T21:26:49.842Z,45.70
2023-02-11T21:29:16.652Z,49.50
2023-02-11T21:31:43.427Z,47.23
2023-02-11T21:34:10.334Z,50.83
2023-02-11T21:36:41.130Z,47.87
2023-02-11T21:43:16.916Z,52.30
2023-02-11T21:50:02.715Z,48.90
2023-02-11T21:56:34.079Z,51.73
2023-02-11T21:59:49.962Z,51.30
2023-02-11T22:02:30.280Z,46.83
2023-02-11T22:05:01.360Z,48.47
2023-02-11T22:07:48.680Z,52.17
2023-02-11T22:10:22.478Z,52.43
2023-02-11T22:12:52.346Z,49.17
2023-02-11T22:15:24.247Z,50.93
2023-02-11T22:17:52.856Z,51.33
2023-02-11T22:20:19.739Z,55.43
2023-02-11T22:22:53.901Z,51.53
2023-02-11T22:25:22.304Z,50.37
2023-02-11T22:28:00.599Z,53.27
2023-02-11T22:30:46.855Z,50.03
2023-02-11T22:33:27.580Z,55.53
2023-02-11T22:36:27.300Z,54.97
2023-02-11T22:39:13.332Z,51.10
2023-02-11T22:42:06.676Z,54.53
2023-02-11T22:44:56.023Z,50.77
2023-02-11T22:47:30.644Z,50.10
2023-02-11T22:49:59.873Z,51.23
2023-02-11T22:52:30.977Z,52.97
2023-02-11T22:55:14.471Z,54.00
2023-02-11T23:06:36.474Z,54.53
2023-02-11T23:11:52.818Z,53.97
2023-02-11T23:14:32.797Z,52.10
2023-02-11T23:17:06.868Z,58.47
2023-02-11T23:22:45.301Z,57.30
2023-02-11T23:25:55.968Z,51.50
2023-02-11T23:28:51.629Z,56.57
2023-02-11T23:31:25.688Z,54.70
2023-02-11T23:33:58.451Z,53.67
2023-02-11T23:36:38.920Z,53.37
2023-02-11T23:39:07.370Z,51.70
2023-02-11T23:41:38.365Z,56.33
2023-02-11T23:44:08.023Z,55.30
2023-02-11T23:46:38.665Z,55.60
2023-02-11T23:49:07.414Z,57.20
2023-02-11T23:51:34.018Z,55.03
2023-02-11T23:54:01.871Z,56.10
2023-02-11T23:56:28.918Z,56.57
2023-02-11T23:58:58.803Z,49.77
